createdAt,value
2018-05-24T00:03:10.714Z,101415.45
2018-05-24T00:08:05.060Z,101420.58
2018-05-24T00:12:59.442Z,101423.73
2018-05-24T00:17:53.936Z,101411.30
2018-05-24T00:22:48.414Z,101408.52
2018-05-24T00:27:42.751Z,101409.36
2018-05-24T00:32:37.118Z,101406.48
2018-05-24T00:37:31.534Z,101401.72
2018-05-24T00:42:25.876Z,101393.29
2018-05-24T00:47:20.392Z,101390.16
2018-05-24T00:52:14.749Z,101386.63
2018-05-24T00:57:09.264Z,101382.38
2018-05-24T01:02:03.605Z,101375.86
2018-05-24T01:06:59.081Z,101380.00
2018-05-24T01:11:53.435Z,101379.66
2018-05-24T01:16:48.538Z,101378.19
2018-05-24T01:21:42.910Z,101381.33
2018-05-24T01:26:37.026Z,101377.93
2018-05-24T01:31:31.516Z,101369.89
2018-05-24T01:36:43.098Z,101363.44
2018-05-24T01:41:37.452Z,101370.43
2018-05-24T01:46:31.822Z,101370.67
2018-05-24T01:51:26.158Z,101371.95
2018-05-24T01:56:20.517Z,101364.35
2018-05-24T02:01:14.894Z,101368.07
2018-05-24T02:06:09.996Z,101360.53
2018-05-24T02:11:04.374Z,101372.16
2018-05-24T02:15:58.720Z,101360.52
2018-05-24T02:20:54.056Z,101361.47
2018-05-24T02:25:48.568Z,101358.05
2018-05-24T02:30:42.947Z,101360.38
2018-05-24T02:35:38.082Z,101350.25
2018-05-24T02:40:32.529Z,101353.39
2018-05-24T02:45:26.867Z,101351.61
2018-05-24T02:50:22.158Z,101353.81
2018-05-24T02:55:16.510Z,101356.31
2018-05-24T03:00:12.038Z,101365.15
2018-05-24T03:05:07.159Z,101355.59
2018-05-24T03:10:02.308Z,101351.56
2018-05-24T03:14:56.660Z,101346.43
2018-05-24T03:19:51.079Z,101346.55
2018-05-24T03:24:46.203Z,101345.97
2018-05-24T03:29:41.313Z,101351.19
2018-05-24T03:34:36.420Z,101351.14
2018-05-24T03:39:30.776Z,101349.87
2018-05-24T03:44:25.354Z,101342.98
2018-05-24T03:49:20.220Z,101348.52
2018-05-24T03:54:14.601Z,101355.84
2018-05-24T04:15:08.190Z,101343.93
2018-05-24T04:20:02.534Z,101343.73
2018-05-24T04:24:56.893Z,101345.34
2018-05-24T04:29:51.250Z,101338.22
2018-05-24T04:34:47.385Z,101341.61
2018-05-24T04:39:41.715Z,101342.63
2018-05-24T04:44:36.896Z,101342.75
2018-05-24T04:49:31.297Z,101343.53
2018-05-24T04:54:26.242Z,101342.39
2018-05-24T04:59:21.361Z,101347.16
2018-05-24T05:04:15.878Z,101348.92
2018-05-24T05:09:10.981Z,101351.20
2018-05-24T05:14:05.989Z,101347.84
2018-05-24T05:19:00.421Z,101349.73
2018-05-24T05:23:55.702Z,101348.08
2018-05-24T05:28:50.053Z,101346.22
2018-05-24T05:33:45.180Z,101354.30
2018-05-24T05:38:39.521Z,101355.84
2018-05-24T05:43:33.892Z,101355.36
2018-05-24T05:48:28.130Z,101352.56
2018-05-24T05:53:22.818Z,101348.20
2018-05-24T05:58:17.340Z,101352.40
2018-05-24T06:03:13.804Z,101343.92
2018-05-24T06:08:08.929Z,101349.02
2018-05-24T06:13:03.400Z,101339.87
2018-05-24T06:17:57.927Z,101340.95
2018-05-24T06:22:52.274Z,101348.00
2018-05-24T06:27:47.428Z,101345.57
2018-05-24T06:32:41.964Z,101347.73
2018-05-24T06:37:36.324Z,101348.98
2018-05-24T06:42:30.683Z,101355.80
2018-05-24T06:47:25.146Z,101361.57
2018-05-24T06:52:19.490Z,101359.75
2018-05-24T06:57:13.849Z,101362.89
2018-05-24T07:02:08.430Z,101364.47
2018-05-24T07:07:02.906Z,101378.70
2018-05-24T07:11:58.163Z,101381.70
2018-05-24T07:16:52.816Z,101393.09
2018-05-24T07:21:47.158Z,101386.14
2018-05-24T07:26:42.274Z,101386.84
2018-05-24T07:31:37.703Z,101386.87
2018-05-24T07:36:32.831Z,101374.67
2018-05-24T07:41:29.732Z,101369.80
2018-05-24T07:46:24.844Z,101361.28
2018-05-24T07:51:19.463Z,101362.20
2018-05-24T07:56:15.223Z,101367.84
2018-05-24T08:01:09.587Z,101360.58
2018-05-24T08:06:04.074Z,101359.64
2018-05-24T08:10:58.426Z,101360.90
2018-05-24T08:15:52.830Z,101354.64
2018-05-24T08:20:47.972Z,101361.10
2018-05-24T08:25:42.676Z,101357.25
2018-05-24T08:30:37.042Z,101357.20
2018-05-24T08:35:32.494Z,101346.40
2018-05-24T08:40:27.508Z,101333.92
2018-05-24T08:45:22.157Z,101341.80
2018-05-24T08:50:16.777Z,101342.16
2018-05-24T08:55:11.411Z,101332.12
2018-05-24T09:00:06.806Z,101324.27
2018-05-24T09:05:01.694Z,101331.47
2018-05-24T09:09:56.500Z,101317.39
2018-05-24T09:14:51.123Z,101317.36
2018-05-24T09:19:45.765Z,101313.95
2018-05-24T09:24:40.393Z,101310.45
2018-05-24T09:29:35.791Z,101295.55
2018-05-24T09:34:30.600Z,101294.00
2018-05-24T09:39:25.231Z,101297.34
2018-05-24T09:44:20.635Z,101296.08
2018-05-24T09:49:15.499Z,101285.73
2018-05-24T09:54:10.139Z,101278.36
2018-05-24T09:59:04.797Z,101271.88
2018-05-24T10:04:00.206Z,101283.30
2018-05-24T10:08:54.841Z,101271.31
2018-05-24T10:13:49.644Z,101272.20
2018-05-24T10:18:45.039Z,101275.30
2018-05-24T10:23:39.860Z,101276.40
2018-05-24T10:28:34.762Z,101278.02
2018-05-24T10:33:29.517Z,101269.81
2018-05-24T10:38:24.912Z,101267.26
2018-05-24T10:43:19.663Z,101259.77
2018-05-24T10:48:14.026Z,101259.75
2018-05-24T10:53:09.385Z,101257.38
2018-05-24T10:58:03.754Z,101254.14
2018-05-24T11:02:58.209Z,101252.89
2018-05-24T11:07:52.738Z,101251.66
2018-05-24T11:12:47.848Z,101245.95
2018-05-24T11:17:42.190Z,101237.06
2018-05-24T11:22:36.582Z,101235.91
2018-05-24T11:27:31.721Z,101233.67
2018-05-24T11:32:26.148Z,101247.86
2018-05-24T11:37:20.543Z,101241.67
2018-05-24T11:42:15.925Z,101243.82
2018-05-24T11:47:11.072Z,101242.69
2018-05-24T11:52:05.515Z,101244.01
2018-05-24T11:57:00.099Z,101245.45
2018-05-24T12:01:54.551Z,101230.24
2018-05-24T12:06:48.990Z,101229.63
2018-05-24T12:11:43.412Z,101234.29
2018-05-24T12:16:37.760Z,101224.31
2018-05-24T12:21:32.136Z,101217.03
2018-05-24T12:26:26.623Z,101205.51
2018-05-24T12:31:21.073Z,101206.28
2018-05-24T12:36:16.308Z,101198.95
2018-05-24T12:41:11.471Z,101198.50
2018-05-24T12:46:05.824Z,101189.66
2018-05-24T12:51:00.278Z,101182.41
2018-05-24T12:55:54.810Z,101178.73
2018-05-24T13:00:49.173Z,101184.25
2018-05-24T13:05:43.526Z,101166.02
2018-05-24T13:10:37.878Z,101167.22
2018-05-24T13:15:32.290Z,101164.25
2018-05-24T13:20:26.669Z,101161.95
2018-05-24T13:25:21.018Z,101161.70
2018-05-24T13:30:15.376Z,101172.78
2018-05-24T13:35:09.757Z,101160.86
2018-05-24T13:40:04.863Z,101147.02
2018-05-24T13:44:59.425Z,101155.79
2018-05-24T13:49:53.769Z,101149.52
2018-05-24T13:54:48.142Z,101147.41
2018-05-24T13:59:42.284Z,101139.73
2018-05-24T14:04:37.385Z,101138.00
2018-05-24T14:09:31.790Z,101125.19
2018-05-24T14:14:26.152Z,101124.03
2018-05-24T14:19:20.500Z,101120.38
2018-05-24T14:24:15.078Z,101115.27
2018-05-24T14:29:09.417Z,101115.03
2018-05-24T14:34:03.875Z,101110.91
2018-05-24T14:38:58.230Z,101099.16
2018-05-24T14:43:53.534Z,101112.55
2018-05-24T14:48:47.904Z,101105.89
2018-05-24T14:53:42.271Z,101097.08
2018-05-24T14:58:36.847Z,101092.59
2018-05-24T15:03:31.204Z,101094.91
2018-05-24T15:08:25.561Z,101088.71
2018-05-24T15:13:37.825Z,101086.70
2018-05-24T15:18:32.484Z,101086.85
2018-05-24T15:23:27.415Z,101086.50
2018-05-24T15:28:22.544Z,101083.99
2018-05-24T15:33:17.713Z,101082.74
2018-05-24T15:38:12.196Z,101089.72
2018-05-24T15:43:06.553Z,101092.27
2018-05-24T15:48:00.922Z,101079.31
2018-05-24T15:52:55.285Z,101076.97
2018-05-24T15:57:49.660Z,101073.16
2018-05-24T16:02:44.160Z,101078.98
2018-05-24T16:07:38.650Z,101070.11
2018-05-24T16:12:33.223Z,101066.05
2018-05-24T16:17:28.522Z,101066.97
2018-05-24T16:22:23.113Z,101069.02
2018-05-24T16:27:17.474Z,101067.90
2018-05-24T16:32:12.091Z,101073.72
2018-05-24T16:37:06.219Z,101076.94
2018-05-24T16:42:00.629Z,101076.60
2018-05-24T16:46:55.113Z,101078.20
2018-05-24T16:51:49.451Z,101071.47
2018-05-24T16:56:44.020Z,101081.00
2018-05-24T17:01:38.475Z,101084.98
2018-05-24T17:06:33.421Z,101069.66
2018-05-24T17:11:28.152Z,101075.48
2018-05-24T17:16:22.493Z,101067.47
2018-05-24T17:21:16.854Z,101067.33
2018-05-24T17:26:11.209Z,101062.27
2018-05-24T17:31:06.326Z,101064.91
2018-05-24T17:36:01.199Z,101068.36
2018-05-24T17:57:23.762Z,101108.60
2018-05-24T18:02:23.792Z,101117.16
2018-05-24T18:12:40.562Z,101109.76
2018-05-24T18:17:35.007Z,101109.54
2018-05-24T18:22:29.574Z,101121.13
2018-05-24T18:32:47.318Z,101134.10
2018-05-24T18:37:41.717Z,101136.15
2018-05-24T18:42:36.254Z,101149.28
2018-05-24T18:47:31.492Z,101158.61
2018-05-24T18:52:26.966Z,101161.50
2018-05-24T19:13:29.037Z,101176.67
2018-05-24T19:18:33.526Z,101181.35
2018-05-24T19:23:27.926Z,101179.34
2018-05-24T19:28:22.275Z,101181.17
2018-05-24T19:33:17.442Z,101185.09
2018-05-24T19:38:11.813Z,101197.67
2018-05-24T19:43:06.935Z,101187.38
2018-05-24T19:48:02.063Z,101195.19
2018-05-24T19:52:56.953Z,101195.73
2018-05-24T19:57:53.530Z,101199.06
2018-05-24T20:02:48.415Z,101197.04
2018-05-24T20:07:42.836Z,101207.92
2018-05-24T20:12:38.881Z,101215.16
2018-05-24T20:17:33.633Z,101225.89
2018-05-24T20:22:28.183Z,101222.89
2018-05-24T20:27:23.311Z,101218.49
2018-05-24T20:32:18.778Z,101216.11
2018-05-24T20:37:13.126Z,101218.95
2018-05-24T20:42:07.588Z,101214.80
2018-05-24T20:47:01.958Z,101211.44
2018-05-24T20:51:57.216Z,101213.50
2018-05-24T20:56:51.923Z,101218.58
2018-05-24T21:01:46.684Z,101217.82
2018-05-24T21:06:41.642Z,101215.67
2018-05-24T21:11:36.289Z,101215.28
2018-05-24T21:16:31.169Z,101214.82
2018-05-24T21:21:26.125Z,101219.98
2018-05-24T21:26:21.736Z,101218.25
2018-05-24T21:31:16.604Z,101215.58
2018-05-24T21:36:12.569Z,101208.67
2018-05-24T21:41:07.393Z,101204.30
2018-05-24T21:46:03.621Z,101203.53
2018-05-24T21:50:59.278Z,101205.09
2018-05-24T21:55:53.856Z,101200.64
2018-05-24T22:00:51.216Z,101203.58
2018-05-24T22:05:45.599Z,101204.05
2018-05-24T22:10:39.973Z,101202.79
2018-05-24T22:15:34.489Z,101207.20
2018-05-24T22:20:29.290Z,101209.05
2018-05-24T22:25:23.642Z,101215.58
2018-05-24T22:30:18.800Z,101220.46
2018-05-24T22:35:13.208Z,101226.91
2018-05-24T22:40:07.562Z,101229.44
2018-05-24T22:45:02.889Z,101236.44
2018-05-24T22:49:57.998Z,101231.20
2018-05-24T22:54:52.693Z,101227.44
2018-05-24T22:59:47.207Z,101222.77
2018-05-24T23:04:41.754Z,101225.08
2018-05-24T23:09:36.132Z,101216.00
2018-05-24T23:14:31.250Z,101215.23
2018-05-24T23:19:26.546Z,101223.71
2018-05-24T23:24:20.934Z,101220.06
2018-05-24T23:29:15.397Z,101214.53
2018-05-24T23:34:09.760Z,101209.02
2018-05-24T23:39:03.878Z,101207.50
2018-05-24T23:43:59.026Z,101209.48
2018-05-24T23:48:54.311Z,101208.34
2018-05-24T23:53:49.595Z,101214.78
2018-05-24T23:58:44.252Z,101215.02
